createdAt,value
2022-12-27T00:01:14.315Z,4.30
2022-12-27T00:02:47.519Z,4.30
2022-12-27T00:04:22.058Z,4.30
2022-12-27T00:05:55.105Z,4.30
2022-12-27T00:07:28.177Z,4.30
2022-12-27T00:09:02.787Z,4.30
2022-12-27T00:10:36.358Z,4.30
2022-12-27T00:12:09.750Z,4.30
2022-12-27T00:13:43.006Z,4.20
2022-12-27T00:15:15.151Z,4.20
2022-12-27T00:16:48.331Z,4.30
2022-12-27T00:18:21.374Z,4.20
2022-12-27T00:19:55.989Z,4.20
2022-12-27T00:21:29.086Z,4.20
2022-12-27T00:23:02.631Z,4.20
2022-12-27T00:24:36.164Z,4.20
2022-12-27T00:26:12.341Z,4.20
2022-12-27T00:27:45.380Z,4.20
2022-12-27T00:29:18.426Z,4.20
2022-12-27T00:30:55.464Z,4.20
2022-12-27T00:32:28.736Z,4.20
2022-12-27T00:34:04.117Z,4.20
2022-12-27T00:35:40.977Z,4.20
2022-12-27T00:37:14.062Z,4.20
2022-12-27T00:38:47.778Z,4.20
2022-12-27T00:40:20.815Z,4.30
2022-12-27T00:41:53.863Z,4.30
2022-12-27T00:43:26.948Z,4.30
2022-12-27T00:44:59.985Z,4.30
2022-12-27T00:46:33.082Z,4.30
2022-12-27T00:48:06.918Z,4.30
2022-12-27T00:49:39.948Z,4.20
2022-12-27T00:51:16.085Z,4.30
2022-12-27T00:52:49.190Z,4.30
2022-12-27T00:54:22.275Z,4.30
2022-12-27T00:55:54.555Z,4.30
2022-12-27T00:57:27.670Z,4.30
2022-12-27T00:59:03.489Z,4.40
2022-12-27T01:00:36.579Z,4.40
2022-12-27T01:02:09.629Z,4.50
2022-12-27T01:03:42.835Z,4.50
2022-12-27T01:05:14.911Z,4.50
2022-12-27T01:06:49.354Z,4.60
2022-12-27T01:08:22.951Z,4.60
2022-12-27T01:09:56.113Z,4.60
2022-12-27T01:11:29.146Z,4.60
2022-12-27T01:13:02.810Z,4.50
2022-12-27T01:14:36.169Z,4.50
2022-12-27T01:16:14.682Z,4.50
2022-12-27T01:17:47.771Z,4.50
2022-12-27T01:19:20.796Z,4.40
2022-12-27T01:20:53.495Z,4.40
2022-12-27T01:22:27.975Z,4.30
2022-12-27T01:24:01.015Z,4.40
2022-12-27T01:25:34.368Z,4.30
2022-12-27T01:27:07.652Z,4.40
2022-12-27T01:28:39.726Z,4.30
2022-12-27T01:30:13.798Z,4.30
2022-12-27T01:31:46.992Z,4.30
2022-12-27T01:33:19.549Z,4.40
2022-12-27T01:34:53.013Z,4.30
2022-12-27T01:36:27.522Z,4.30
2022-12-27T01:38:02.058Z,4.30
2022-12-27T01:39:35.106Z,4.40
2022-12-27T01:41:22.098Z,4.40
2022-12-27T01:42:55.430Z,4.40
2022-12-27T01:44:53.869Z,4.40
2022-12-27T01:46:27.095Z,4.40
2022-12-27T01:48:05.600Z,4.40
2022-12-27T01:49:38.200Z,4.50
2022-12-27T01:51:12.016Z,4.40
2022-12-27T01:52:51.471Z,4.50
2022-12-27T01:54:26.274Z,4.40
2022-12-27T01:56:01.440Z,4.50
2022-12-27T01:57:34.698Z,4.50
2022-12-27T01:59:10.405Z,4.50
2022-12-27T02:00:45.621Z,4.50
2022-12-27T02:02:18.109Z,4.40
2022-12-27T02:03:58.421Z,4.50
2022-12-27T02:05:31.669Z,4.50
2022-12-27T02:07:05.331Z,4.50
2022-12-27T02:08:44.784Z,4.50
2022-12-27T02:10:18.857Z,4.50
2022-12-27T02:11:56.738Z,4.60
2022-12-27T02:13:31.881Z,4.50
2022-12-27T02:15:05.542Z,4.50
2022-12-27T02:16:38.971Z,4.60
2022-12-27T02:18:12.262Z,4.50
2022-12-27T02:19:59.197Z,4.50
2022-12-27T02:22:04.330Z,4.40
2022-12-27T02:24:03.848Z,4.50
2022-12-27T02:26:04.654Z,4.50
2022-12-27T02:27:54.971Z,4.50
2022-12-27T02:30:00.623Z,4.50
2022-12-27T02:31:41.672Z,4.50
2022-12-27T02:33:20.227Z,4.60
2022-12-27T02:35:01.839Z,4.60
2022-12-27T02:36:38.422Z,4.60
2022-12-27T02:38:16.291Z,4.60
2022-12-27T02:39:50.217Z,4.60
2022-12-27T02:41:40.165Z,4.50
2022-12-27T02:43:30.791Z,4.50
2022-12-27T02:45:30.755Z,4.50
2022-12-27T02:47:21.671Z,4.40
2022-12-27T02:49:14.503Z,4.40
2022-12-27T02:51:14.539Z,4.30
2022-12-27T02:53:07.998Z,4.30
2022-12-27T02:55:04.054Z,4.20
2022-12-27T02:57:05.918Z,4.20
2022-12-27T02:58:54.678Z,4.20
2022-12-27T03:00:49.892Z,4.10
2022-12-27T03:02:55.925Z,4.20
2022-12-27T03:04:47.551Z,4.30
2022-12-27T03:06:45.393Z,4.30
2022-12-27T03:08:23.338Z,4.30
2022-12-27T03:10:27.145Z,4.40
2022-12-27T03:12:17.770Z,4.40
2022-12-27T03:14:30.998Z,4.30
2022-12-27T03:16:19.602Z,4.30
2022-12-27T03:18:02.752Z,4.40
2022-12-27T03:19:57.501Z,4.30
2022-12-27T03:21:51.058Z,4.30
2022-12-27T03:23:42.232Z,4.30
2022-12-27T03:25:31.313Z,4.30
2022-12-27T03:27:09.044Z,4.30
2022-12-27T03:29:02.834Z,4.20
2022-12-27T03:30:55.888Z,4.20
2022-12-27T03:32:47.892Z,4.00
2022-12-27T03:34:38.200Z,3.90
2022-12-27T03:36:31.999Z,3.90
2022-12-27T03:38:06.409Z,3.90
2022-12-27T03:39:43.999Z,3.90
2022-12-27T03:41:41.861Z,3.90
2022-12-27T03:43:17.333Z,3.90
2022-12-27T03:44:50.837Z,3.90
2022-12-27T03:46:35.886Z,3.90
2022-12-27T03:48:14.339Z,4.00
2022-12-27T03:49:52.126Z,4.00
2022-12-27T03:51:26.796Z,3.90
2022-12-27T03:53:07.424Z,3.90
2022-12-27T03:54:42.564Z,3.90
2022-12-27T03:56:14.783Z,3.90
2022-12-27T03:57:48.078Z,3.80
2022-12-27T03:59:21.257Z,3.80
2022-12-27T04:00:53.345Z,3.80
2022-12-27T04:02:26.606Z,3.80
2022-12-27T04:04:01.163Z,3.70
2022-12-27T04:05:33.304Z,3.70
2022-12-27T04:07:07.454Z,3.70
2022-12-27T04:08:57.853Z,3.70
2022-12-27T04:10:48.464Z,3.70
2022-12-27T04:12:38.943Z,3.70
2022-12-27T04:14:29.230Z,3.70
2022-12-27T04:16:19.789Z,3.70
2022-12-27T04:18:10.169Z,3.70
2022-12-27T04:20:01.880Z,3.70
2022-12-27T04:21:52.611Z,3.70
2022-12-27T04:23:43.530Z,3.70
2022-12-27T04:25:34.115Z,3.70
2022-12-27T04:27:24.774Z,3.80
2022-12-27T04:29:15.206Z,3.80
2022-12-27T04:31:05.588Z,3.70
2022-12-27T04:32:56.104Z,3.70
2022-12-27T04:34:40.940Z,3.70
2022-12-27T04:36:15.366Z,3.70
2022-12-27T04:37:47.450Z,3.70
2022-12-27T04:39:20.543Z,3.70
2022-12-27T04:41:25.477Z,3.70
2022-12-27T04:43:16.259Z,3.70
2022-12-27T04:45:11.619Z,3.60
2022-12-27T04:47:05.702Z,3.60
2022-12-27T04:48:56.313Z,3.60
2022-12-27T04:50:49.978Z,3.60
2022-12-27T04:52:42.995Z,3.50
2022-12-27T04:54:37.234Z,3.50
2022-12-27T04:56:10.262Z,3.50
2022-12-27T04:57:42.356Z,3.40
2022-12-27T04:59:32.649Z,3.40
2022-12-27T05:01:23.614Z,3.30
2022-12-27T05:02:57.426Z,3.40
2022-12-27T05:04:30.872Z,3.30
2022-12-27T05:06:04.662Z,3.30
2022-12-27T05:07:57.398Z,3.30
2022-12-27T05:09:48.067Z,3.30
2022-12-27T05:11:38.532Z,3.20
2022-12-27T05:13:30.290Z,3.30
2022-12-27T05:15:03.328Z,3.30
2022-12-27T05:16:38.192Z,3.20
2022-12-27T05:18:10.288Z,3.40
2022-12-27T05:19:43.433Z,3.40
2022-12-27T05:21:15.555Z,3.40
2022-12-27T05:23:07.433Z,3.40
2022-12-27T05:24:58.123Z,3.60
2022-12-27T05:26:32.208Z,3.60
2022-12-27T05:28:05.738Z,3.60
2022-12-27T05:29:38.834Z,3.70
2022-12-27T05:31:10.993Z,3.70
2022-12-27T05:32:44.127Z,3.80
2022-12-27T05:34:17.258Z,3.70
2022-12-27T05:35:49.328Z,3.70
2022-12-27T05:37:22.344Z,3.70
2022-12-27T05:38:56.825Z,3.80
2022-12-27T05:40:29.268Z,3.80
2022-12-27T05:42:03.143Z,3.80
2022-12-27T05:43:36.670Z,3.90
2022-12-27T05:45:09.182Z,3.90
2022-12-27T05:46:42.271Z,3.90
2022-12-27T05:48:14.412Z,3.90
2022-12-27T05:49:47.448Z,4.00
2022-12-27T05:51:22.300Z,3.90
2022-12-27T05:52:55.404Z,4.00
2022-12-27T05:54:29.824Z,4.00
2022-12-27T05:56:03.192Z,4.00
2022-12-27T05:57:36.365Z,4.00
2022-12-27T05:59:09.588Z,4.00
2022-12-27T06:00:42.615Z,4.00
2022-12-27T06:02:15.816Z,4.00
2022-12-27T06:03:48.987Z,4.00
2022-12-27T06:05:22.282Z,4.00
2022-12-27T06:06:55.328Z,4.10
2022-12-27T06:08:28.705Z,4.00
2022-12-27T06:10:02.319Z,4.00
2022-12-27T06:11:35.387Z,4.10
2022-12-27T06:13:08.681Z,4.10
2022-12-27T06:14:42.157Z,4.20
2022-12-27T06:16:15.297Z,4.20
2022-12-27T06:17:47.433Z,4.20
2022-12-27T06:19:20.474Z,4.10
2022-12-27T06:20:53.798Z,4.20
2022-12-27T06:22:26.947Z,4.10
2022-12-27T06:24:00.052Z,4.10
2022-12-27T06:25:34.477Z,4.10
2022-12-27T06:27:07.347Z,4.10
2022-12-27T06:28:40.401Z,4.10
2022-12-27T06:30:15.941Z,4.00
2022-12-27T06:31:48.099Z,4.10
2022-12-27T06:33:21.327Z,4.10
2022-12-27T06:34:54.354Z,4.00
2022-12-27T06:36:29.511Z,4.00
2022-12-27T06:38:02.745Z,4.10
2022-12-27T06:39:35.848Z,4.00
2022-12-27T06:41:13.047Z,4.00
2022-12-27T06:42:46.113Z,3.90
2022-12-27T06:44:19.150Z,3.80
2022-12-27T06:45:57.455Z,3.80
2022-12-27T06:47:30.509Z,3.80
2022-12-27T06:49:03.677Z,3.80
2022-12-27T06:50:37.912Z,3.70
2022-12-27T06:52:10.969Z,3.70
2022-12-27T06:53:43.049Z,3.60
2022-12-27T06:55:16.230Z,3.60
2022-12-27T06:56:50.674Z,3.50
2022-12-27T06:58:23.733Z,3.60
2022-12-27T06:59:56.797Z,3.50
2022-12-27T07:01:30.236Z,3.50
2022-12-27T07:03:05.009Z,3.50
2022-12-27T07:04:39.070Z,3.50
2022-12-27T07:06:12.433Z,3.40
2022-12-27T07:07:45.654Z,3.40
2022-12-27T07:09:18.892Z,3.40
2022-12-27T07:10:52.056Z,3.50
2022-12-27T07:12:29.562Z,3.40
2022-12-27T07:14:09.397Z,3.40
2022-12-27T07:15:42.422Z,3.40
2022-12-27T07:17:15.482Z,3.40
2022-12-27T07:18:50.078Z,3.40
2022-12-27T07:20:23.744Z,3.40
2022-12-27T07:21:56.833Z,3.40
2022-12-27T07:23:29.944Z,3.40
2022-12-27T07:25:02.979Z,3.60
2022-12-27T07:26:36.086Z,3.50
2022-12-27T07:28:09.572Z,3.70
2022-12-27T07:29:45.717Z,3.60
2022-12-27T07:31:20.219Z,3.70
2022-12-27T07:32:53.390Z,3.70
2022-12-27T07:34:26.612Z,3.80
2022-12-27T07:36:00.181Z,3.80
2022-12-27T07:37:33.202Z,3.80
2022-12-27T07:39:07.319Z,3.80
2022-12-27T07:40:40.501Z,3.70
2022-12-27T07:42:13.610Z,3.80
2022-12-27T07:43:49.182Z,3.80
2022-12-27T07:45:22.505Z,3.90
2022-12-27T07:46:55.632Z,3.90
2022-12-27T07:48:29.626Z,3.90
2022-12-27T07:50:03.114Z,4.00
2022-12-27T07:51:36.203Z,4.00
2022-12-27T07:53:09.287Z,4.00
2022-12-27T07:54:43.110Z,4.00
2022-12-27T07:56:25.196Z,4.00
2022-12-27T07:57:59.279Z,4.00
2022-12-27T07:59:33.732Z,4.10
2022-12-27T08:01:06.635Z,4.20
2022-12-27T08:02:39.710Z,4.30
2022-12-27T08:04:12.912Z,4.40
2022-12-27T08:05:52.967Z,4.50
2022-12-27T08:07:27.035Z,4.60
2022-12-27T08:09:00.878Z,4.80
2022-12-27T08:10:36.098Z,4.90
2022-12-27T08:12:09.837Z,4.90
2022-12-27T08:13:43.265Z,5.00
2022-12-27T08:15:17.750Z,5.10
2022-12-27T08:16:50.885Z,5.10
2022-12-27T08:18:24.046Z,5.10
2022-12-27T08:19:57.923Z,5.20
2022-12-27T08:21:31.054Z,5.20
2022-12-27T08:23:04.250Z,5.40
2022-12-27T08:24:38.339Z,5.40
2022-12-27T08:26:11.657Z,5.30
2022-12-27T08:27:44.689Z,5.30
2022-12-27T08:29:17.715Z,5.50
2022-12-27T08:30:52.519Z,5.60
2022-12-27T08:32:25.623Z,5.80
2022-12-27T08:33:59.019Z,5.70
2022-12-27T08:35:52.274Z,5.80
2022-12-27T08:37:25.803Z,5.80
2022-12-27T08:38:59.415Z,6.30
2022-12-27T08:40:32.675Z,6.40
2022-12-27T08:42:05.926Z,6.50
2022-12-27T08:43:39.030Z,6.50
2022-12-27T08:45:12.408Z,6.80
2022-12-27T08:46:47.407Z,7.00
2022-12-27T08:48:20.554Z,6.90
2022-12-27T08:49:53.667Z,6.70
2022-12-27T08:51:35.872Z,6.40
2022-12-27T08:53:13.387Z,6.10
2022-12-27T08:54:46.476Z,6.00
2022-12-27T08:56:20.149Z,6.10
2022-12-27T08:57:57.877Z,6.30
2022-12-27T08:59:30.955Z,6.30
2022-12-27T09:01:07.029Z,5.90
2022-12-27T09:02:41.689Z,5.60
2022-12-27T09:04:14.843Z,5.50
2022-12-27T09:05:49.936Z,5.30
2022-12-27T09:07:23.046Z,5.30
2022-12-27T09:08:57.144Z,5.30
2022-12-27T09:10:30.296Z,5.30
2022-12-27T09:12:08.089Z,5.30
2022-12-27T09:13:43.062Z,5.40
2022-12-27T09:15:16.730Z,5.40
2022-12-27T09:16:49.848Z,5.40
2022-12-27T09:18:23.287Z,5.30
2022-12-27T09:19:56.385Z,5.30
2022-12-27T09:21:32.599Z,5.20
2022-12-27T09:23:05.720Z,5.20
2022-12-27T09:24:38.805Z,5.20
2022-12-27T09:26:13.977Z,5.20
2022-12-27T09:27:47.086Z,5.20
2022-12-27T09:29:20.246Z,5.20
2022-12-27T09:30:52.424Z,5.20
2022-12-27T09:32:27.445Z,5.40
2022-12-27T09:34:01.946Z,5.60
2022-12-27T09:35:38.441Z,5.90
2022-12-27T09:37:12.831Z,6.20
2022-12-27T09:38:46.726Z,6.70
2022-12-27T09:40:22.466Z,7.10
2022-12-27T09:43:59.211Z,7.30
2022-12-27T09:45:40.562Z,7.30
2022-12-27T09:47:19.008Z,7.50
2022-12-27T09:48:54.858Z,7.70
2022-12-27T09:50:34.346Z,8.00
2022-12-27T09:52:13.097Z,7.90
2022-12-27T09:53:51.092Z,7.80
2022-12-27T09:55:35.507Z,7.70
2022-12-27T09:57:20.453Z,7.40
2022-12-27T09:58:55.558Z,7.50
2022-12-27T10:00:34.904Z,7.40
2022-12-27T10:02:22.120Z,7.80
2022-12-27T10:03:55.909Z,7.90
2022-12-27T10:05:34.871Z,7.90
2022-12-27T10:07:22.437Z,8.00
2022-12-27T10:09:04.989Z,8.10
2022-12-27T10:10:45.762Z,8.40
2022-12-27T10:12:35.939Z,8.00
2022-12-27T10:14:26.857Z,8.00
2022-12-27T10:16:12.599Z,8.30
2022-12-27T10:17:55.340Z,8.70
2022-12-27T10:19:38.195Z,8.30
2022-12-27T10:21:21.052Z,7.90
2022-12-27T10:22:58.038Z,7.70
2022-12-27T10:24:40.831Z,7.50
2022-12-27T10:26:21.734Z,7.70
2022-12-27T10:28:00.375Z,8.00
2022-12-27T10:29:33.804Z,8.40
2022-12-27T10:31:08.065Z,8.00
2022-12-27T10:32:41.175Z,8.10
2022-12-27T10:34:16.734Z,8.20
2022-12-27T10:35:50.148Z,8.20
2022-12-27T10:37:24.859Z,8.70
2022-12-27T10:38:58.229Z,8.30
2022-12-27T10:40:39.284Z,8.10
2022-12-27T10:42:25.486Z,7.90
2022-12-27T10:43:58.864Z,7.80
2022-12-27T10:45:34.736Z,7.90
2022-12-27T10:47:07.999Z,7.40
2022-12-27T10:49:11.194Z,7.30
2022-12-27T10:50:34.249Z,7.20
2022-12-27T10:52:12.239Z,7.30
2022-12-27T10:54:00.106Z,7.70
2022-12-27T10:55:36.807Z,8.40
2022-12-27T10:57:27.338Z,8.40
2022-12-27T10:59:12.991Z,8.70
2022-12-27T11:00:54.763Z,9.00
2022-12-27T11:02:27.887Z,9.20
2022-12-27T11:04:20.206Z,9.30
2022-12-27T11:06:02.417Z,9.50
2022-12-27T11:07:36.150Z,9.50
2022-12-27T11:09:31.703Z,9.90
2022-12-27T11:11:16.624Z,9.60
2022-12-27T11:13:01.809Z,9.50
2022-12-27T11:14:37.205Z,9.80
2022-12-27T11:16:16.798Z,9.40
2022-12-27T11:17:53.325Z,9.30
2022-12-27T11:19:28.119Z,10.00
2022-12-27T11:21:01.406Z,10.00
2022-12-27T11:22:34.504Z,10.30
2022-12-27T11:24:15.234Z,10.00
2022-12-27T11:25:54.769Z,10.10
2022-12-27T11:27:30.074Z,10.50
2022-12-27T11:29:04.158Z,10.70
2022-12-27T11:30:40.356Z,10.10
2022-12-27T11:32:13.467Z,9.80
2022-12-27T11:33:49.622Z,9.30
2022-12-27T11:35:24.674Z,9.00
2022-12-27T11:37:05.429Z,8.80
2022-12-27T11:38:40.781Z,8.60
2022-12-27T11:40:24.593Z,8.50
2022-12-27T11:42:01.133Z,8.70
2022-12-27T11:43:38.354Z,9.30
2022-12-27T11:45:16.314Z,9.00
2022-12-27T11:46:58.995Z,9.20
2022-12-27T11:48:36.702Z,9.00
2022-12-27T11:50:34.128Z,9.60
2022-12-27T11:52:35.092Z,9.90
2022-12-27T11:54:38.615Z,9.90
2022-12-27T11:56:20.167Z,8.90
2022-12-27T11:58:18.885Z,8.80
2022-12-27T12:00:00.794Z,9.00
2022-12-27T12:01:58.341Z,8.90
2022-12-27T12:03:57.845Z,9.00
2022-12-27T12:06:04.578Z,8.50
2022-12-27T12:07:53.241Z,8.20
2022-12-27T12:09:50.852Z,8.10
2022-12-27T12:11:35.735Z,8.20
2022-12-27T12:13:36.113Z,7.90
2022-12-27T12:15:51.736Z,8.00
2022-12-27T12:17:55.904Z,7.80
2022-12-27T12:19:55.304Z,7.70
2022-12-27T12:21:34.474Z,7.70
2022-12-27T12:23:13.335Z,7.60
2022-12-27T12:25:12.367Z,7.50
2022-12-27T12:26:59.021Z,7.50
2022-12-27T12:29:09.967Z,7.60
2022-12-27T12:30:56.171Z,7.50
2022-12-27T12:32:36.034Z,7.50
2022-12-27T12:34:26.252Z,7.40
2022-12-27T12:36:17.446Z,7.40
2022-12-27T12:38:06.507Z,7.40
2022-12-27T12:39:57.623Z,7.40
2022-12-27T12:41:47.912Z,7.40
2022-12-27T12:43:38.825Z,7.30
2022-12-27T12:45:38.631Z,7.20
2022-12-27T12:47:30.889Z,7.10
2022-12-27T12:49:19.947Z,7.20
2022-12-27T12:51:06.464Z,7.20
2022-12-27T12:53:00.116Z,7.10
2022-12-27T12:54:54.812Z,7.20
2022-12-27T12:56:43.828Z,7.20
2022-12-27T12:58:36.348Z,7.30
2022-12-27T13:00:44.290Z,7.20
2022-12-27T13:02:34.901Z,7.20
2022-12-27T13:04:42.172Z,7.10
2022-12-27T13:06:31.721Z,7.00
2022-12-27T13:08:13.954Z,7.00
2022-12-27T13:10:03.305Z,7.00
2022-12-27T13:11:47.458Z,6.90
2022-12-27T13:13:27.772Z,6.90
2022-12-27T13:15:20.424Z,6.90
2022-12-27T13:17:02.597Z,6.90
2022-12-27T13:18:47.394Z,6.90
2022-12-27T13:20:37.316Z,7.00
2022-12-27T13:22:18.026Z,6.90
2022-12-27T13:24:04.375Z,6.90
2022-12-27T13:25:42.473Z,6.80
2022-12-27T13:27:26.077Z,6.80
2022-12-27T13:29:16.239Z,6.80
2022-12-27T13:30:58.891Z,6.80
2022-12-27T13:32:45.183Z,6.80
2022-12-27T13:34:32.371Z,6.70
2022-12-27T13:36:19.588Z,6.70
2022-12-27T13:38:02.077Z,6.70
2022-12-27T13:39:47.659Z,6.70
2022-12-27T13:41:39.158Z,6.70
2022-12-27T13:43:41.026Z,6.70
2022-12-27T13:45:31.951Z,6.70
2022-12-27T13:47:48.621Z,6.70
2022-12-27T13:49:50.390Z,6.70
2022-12-27T13:51:42.940Z,6.70
2022-12-27T13:54:07.077Z,6.70
2022-12-27T13:55:53.051Z,6.70
2022-12-27T13:57:41.659Z,6.70
2022-12-27T13:59:33.243Z,6.70
2022-12-27T14:01:32.538Z,6.70
2022-12-27T14:03:43.917Z,6.60
2022-12-27T14:05:50.684Z,6.70
2022-12-27T14:07:50.863Z,6.60
2022-12-27T14:09:59.332Z,6.60
2022-12-27T14:11:40.310Z,6.60
2022-12-27T14:13:14.388Z,6.60
2022-12-27T14:14:48.887Z,6.50
2022-12-27T14:16:35.555Z,6.50
2022-12-27T14:18:35.270Z,6.40
2022-12-27T14:20:28.613Z,6.40
2022-12-27T14:22:22.998Z,6.30
2022-12-27T14:24:13.025Z,6.20
2022-12-27T14:26:27.943Z,6.10
2022-12-27T14:28:32.046Z,6.00
2022-12-27T14:30:35.260Z,6.00
2022-12-27T14:32:40.278Z,6.00
2022-12-27T14:34:59.850Z,5.90
2022-12-27T14:38:59.931Z,6.00
2022-12-27T14:40:51.353Z,6.10
2022-12-27T14:43:03.055Z,6.10
2022-12-27T14:45:16.283Z,6.00
2022-12-27T14:47:28.425Z,6.00
2022-12-27T14:49:35.083Z,6.00
2022-12-27T14:52:00.751Z,6.00
2022-12-27T14:54:26.713Z,6.00
2022-12-27T14:56:24.046Z,6.00
2022-12-27T14:58:17.333Z,5.90
2022-12-27T14:59:58.574Z,5.80
2022-12-27T15:01:46.499Z,5.80
2022-12-27T15:03:35.817Z,5.70
2022-12-27T15:05:37.313Z,5.70
2022-12-27T15:07:38.831Z,5.60
2022-12-27T15:09:20.098Z,5.50
2022-12-27T15:11:05.913Z,5.40
2022-12-27T15:12:46.963Z,5.40
2022-12-27T15:14:33.712Z,5.40
2022-12-27T15:16:16.240Z,5.30
2022-12-27T15:18:06.923Z,5.30
2022-12-27T15:19:52.814Z,5.30
2022-12-27T15:21:43.709Z,5.30
2022-12-27T15:23:27.976Z,5.30
2022-12-27T15:25:14.715Z,5.30
2022-12-27T15:26:53.152Z,5.30
2022-12-27T15:28:40.469Z,5.20
2022-12-27T15:30:24.097Z,5.10
2022-12-27T15:32:06.570Z,5.10
2022-12-27T15:33:48.345Z,5.00
2022-12-27T15:35:39.755Z,4.90
2022-12-27T15:37:49.881Z,4.80
2022-12-27T15:39:51.056Z,4.60
2022-12-27T15:41:31.081Z,4.40
2022-12-27T15:43:11.613Z,4.40
2022-12-27T15:44:53.717Z,4.20
2022-12-27T15:46:50.290Z,4.10
2022-12-27T15:48:59.628Z,4.20
2022-12-27T15:50:52.763Z,4.10
2022-12-27T15:52:34.865Z,3.80
2022-12-27T15:54:28.412Z,3.60
2022-12-27T15:56:28.260Z,3.50
2022-12-27T15:58:13.233Z,3.20
2022-12-27T15:59:51.707Z,3.00
2022-12-27T16:01:30.111Z,2.80
2022-12-27T16:03:04.987Z,2.60
2022-12-27T16:04:49.024Z,2.40
2022-12-27T16:06:48.615Z,2.30
2022-12-27T16:08:33.458Z,2.20
2022-12-27T16:10:43.099Z,2.30
2022-12-27T16:12:36.924Z,2.40
2022-12-27T16:14:35.258Z,2.60
2022-12-27T16:16:32.339Z,2.60
2022-12-27T16:18:06.760Z,2.40
2022-12-27T16:20:11.221Z,2.30
2022-12-27T16:21:47.313Z,2.10
2022-12-27T16:23:24.597Z,1.90
2022-12-27T16:24:58.552Z,1.70
2022-12-27T16:26:35.559Z,1.70
2022-12-27T16:28:19.583Z,1.60
2022-12-27T16:29:54.001Z,1.50
2022-12-27T16:31:30.824Z,1.40
2022-12-27T16:33:04.575Z,1.30
2022-12-27T16:34:37.742Z,1.30
2022-12-27T16:36:32.874Z,1.20
2022-12-27T16:38:07.268Z,1.20
2022-12-27T16:40:12.836Z,1.10
2022-12-27T16:42:06.925Z,1.10
2022-12-27T16:43:55.369Z,1.10
2022-12-27T16:45:36.844Z,1.10
2022-12-27T16:47:28.911Z,1.00
2022-12-27T16:49:40.090Z,1.20
2022-12-27T16:51:22.773Z,1.10
2022-12-27T16:53:08.752Z,1.20
2022-12-27T16:54:52.924Z,1.30
2022-12-27T16:56:28.305Z,1.30
2022-12-27T16:58:32.982Z,1.30
2022-12-27T17:00:23.643Z,1.30
2022-12-27T17:02:00.178Z,1.20
2022-12-27T17:03:50.194Z,1.10
2022-12-27T17:05:41.953Z,1.10
2022-12-27T17:07:45.406Z,1.10
2022-12-27T17:09:41.990Z,1.10
2022-12-27T17:11:33.757Z,1.10
2022-12-27T17:13:14.226Z,1.00
2022-12-27T17:14:48.077Z,1.00
2022-12-27T17:16:23.674Z,0.90
2022-12-27T17:18:00.896Z,0.90
2022-12-27T17:19:39.838Z,0.80
2022-12-27T17:21:20.000Z,1.20
2022-12-27T17:22:58.665Z,2.00
2022-12-27T17:24:32.137Z,2.50
2022-12-27T17:26:27.294Z,2.90
2022-12-27T17:28:09.551Z,3.20
2022-12-27T17:30:18.599Z,3.40
2022-12-27T17:31:58.554Z,3.50
2022-12-27T17:33:41.040Z,3.60
2022-12-27T17:35:25.759Z,3.90
2022-12-27T17:37:05.869Z,4.00
2022-12-27T17:38:52.741Z,4.10
2022-12-27T17:40:35.591Z,4.10
2022-12-27T17:42:35.855Z,4.00
2022-12-27T17:44:37.422Z,4.10
2022-12-27T17:46:25.729Z,4.10
2022-12-27T17:48:09.524Z,4.10
2022-12-27T17:49:42.928Z,4.20
2022-12-27T17:51:23.840Z,4.30
2022-12-27T17:53:30.667Z,4.30
2022-12-27T17:55:37.103Z,4.30
2022-12-27T17:57:31.074Z,4.20
2022-12-27T17:59:15.978Z,4.20
2022-12-27T18:00:56.626Z,4.10
2022-12-27T18:02:34.139Z,4.10
2022-12-27T18:04:08.053Z,4.10
2022-12-27T18:05:44.800Z,4.10
2022-12-27T18:07:25.982Z,4.10
2022-12-27T18:08:59.226Z,4.10
2022-12-27T18:10:36.513Z,4.20
2022-12-27T18:12:18.954Z,4.20
2022-12-27T18:13:56.680Z,4.20
2022-12-27T18:15:32.366Z,4.20
2022-12-27T18:17:06.898Z,4.30
2022-12-27T18:18:40.100Z,4.30
2022-12-27T18:20:38.015Z,4.30
2022-12-27T18:22:20.932Z,4.20
2022-12-27T18:23:54.806Z,4.30
2022-12-27T18:25:31.022Z,4.30
2022-12-27T18:27:06.903Z,4.20
2022-12-27T18:28:41.158Z,4.30
2022-12-27T18:30:14.883Z,4.30
2022-12-27T18:31:49.976Z,4.30
2022-12-27T18:33:31.845Z,4.20
2022-12-27T18:35:05.460Z,4.30
2022-12-27T18:36:43.265Z,4.20
2022-12-27T18:38:21.465Z,4.30
2022-12-27T18:39:57.266Z,4.40
2022-12-27T18:41:38.281Z,4.50
2022-12-27T18:43:16.398Z,4.40
2022-12-27T18:44:52.989Z,4.40
2022-12-27T18:46:29.029Z,4.60
2022-12-27T18:48:04.667Z,4.60
2022-12-27T18:49:38.555Z,4.60
2022-12-27T18:51:11.661Z,4.50
2022-12-27T18:52:49.631Z,4.40
2022-12-27T18:54:35.907Z,4.30
2022-12-27T18:56:26.930Z,4.30
2022-12-27T18:58:06.227Z,4.20
2022-12-27T18:59:39.377Z,4.20
2022-12-27T19:01:32.048Z,4.20
2022-12-27T19:03:15.655Z,4.20
2022-12-27T19:05:22.858Z,4.10
2022-12-27T19:07:07.893Z,4.20
2022-12-27T19:08:47.019Z,4.10
2022-12-27T19:10:23.778Z,4.10
2022-12-27T19:11:59.694Z,4.10
2022-12-27T19:13:44.323Z,4.00
2022-12-27T19:15:20.477Z,4.10
2022-12-27T19:16:55.815Z,4.00
2022-12-27T19:18:32.318Z,4.10
2022-12-27T19:20:08.996Z,4.20
2022-12-27T19:21:42.230Z,4.20
2022-12-27T19:23:36.085Z,4.10
2022-12-27T19:25:23.143Z,4.10
2022-12-27T19:26:57.692Z,4.10
2022-12-27T19:28:32.356Z,4.10
2022-12-27T19:30:06.505Z,4.10
2022-12-27T19:31:42.802Z,4.10
2022-12-27T19:33:22.059Z,4.10
2022-12-27T19:34:58.752Z,4.10
2022-12-27T19:36:34.824Z,4.20
2022-12-27T19:38:11.755Z,4.10
2022-12-27T19:39:48.707Z,4.00
2022-12-27T19:41:23.386Z,4.00
2022-12-27T19:42:56.470Z,4.00
2022-12-27T19:44:30.307Z,3.90
2022-12-27T19:46:03.420Z,3.90
2022-12-27T19:47:39.785Z,3.90
2022-12-27T19:49:40.882Z,3.80
2022-12-27T19:51:07.092Z,3.70
2022-12-27T19:52:40.925Z,3.70
2022-12-27T19:54:18.061Z,3.50
2022-12-27T19:55:51.405Z,3.30
2022-12-27T19:57:26.169Z,3.20
2022-12-27T19:58:59.201Z,3.20
2022-12-27T20:00:32.248Z,3.10
2022-12-27T20:02:06.558Z,3.10
2022-12-27T20:03:40.003Z,3.00
2022-12-27T20:05:13.616Z,3.00
2022-12-27T20:06:48.817Z,2.80
2022-12-27T20:08:26.601Z,2.70
2022-12-27T20:09:59.640Z,2.70
2022-12-27T20:11:32.753Z,2.60
2022-12-27T20:13:07.378Z,2.50
2022-12-27T20:14:40.701Z,2.40
2022-12-27T20:16:16.546Z,2.30
2022-12-27T20:17:51.193Z,2.30
2022-12-27T20:19:24.286Z,2.30
2022-12-27T20:20:58.777Z,2.30
2022-12-27T20:22:31.823Z,2.20
2022-12-27T20:24:05.181Z,2.20
2022-12-27T20:25:40.673Z,2.10
2022-12-27T20:27:13.766Z,2.10
2022-12-27T20:28:48.276Z,2.20
2022-12-27T20:30:21.433Z,2.20
2022-12-27T20:31:54.666Z,2.40
2022-12-27T20:33:27.736Z,2.60
2022-12-27T20:35:00.804Z,2.80
2022-12-27T20:36:34.197Z,2.90
2022-12-27T20:38:06.354Z,2.90
2022-12-27T20:39:39.694Z,2.90
2022-12-27T20:41:15.051Z,2.80
2022-12-27T20:42:48.084Z,2.70
2022-12-27T20:44:22.657Z,2.60
2022-12-27T20:45:55.729Z,2.70
2022-12-27T20:47:28.821Z,2.60
2022-12-27T20:49:02.375Z,2.60
2022-12-27T20:50:36.699Z,2.80
2022-12-27T20:52:09.764Z,2.80
2022-12-27T20:53:42.877Z,2.70
2022-12-27T20:55:15.947Z,2.70
2022-12-27T20:56:49.033Z,2.80
2022-12-27T20:58:22.280Z,2.90
2022-12-27T20:59:56.714Z,3.10
2022-12-27T21:01:29.971Z,3.40
2022-12-27T21:03:03.162Z,3.70
2022-12-27T21:04:36.296Z,3.90
2022-12-27T21:06:11.297Z,4.20
2022-12-27T21:07:44.424Z,4.20
2022-12-27T21:09:17.567Z,4.40
2022-12-27T21:10:50.653Z,4.60
2022-12-27T21:12:23.751Z,4.70
2022-12-27T21:13:56.847Z,4.70
2022-12-27T21:15:31.456Z,4.70
2022-12-27T21:17:04.594Z,4.70
2022-12-27T21:18:38.456Z,4.60
2022-12-27T21:20:13.354Z,4.80
2022-12-27T21:21:46.461Z,4.80
2022-12-27T21:23:19.597Z,4.80
2022-12-27T21:24:52.675Z,4.90
2022-12-27T21:26:27.619Z,5.00
2022-12-27T21:28:00.674Z,4.90
2022-12-27T21:29:33.749Z,4.90
2022-12-27T21:31:09.781Z,5.00
2022-12-27T21:32:42.880Z,4.90
2022-12-27T21:34:16.711Z,5.00
2022-12-27T21:35:56.808Z,4.90
2022-12-27T21:37:30.203Z,4.90
2022-12-27T21:39:04.003Z,4.80
2022-12-27T21:40:37.069Z,4.80
2022-12-27T21:42:10.935Z,4.80
2022-12-27T21:43:43.749Z,4.80
2022-12-27T21:45:16.913Z,4.70
2022-12-27T21:46:51.331Z,4.70
2022-12-27T21:48:25.221Z,4.70
2022-12-27T21:49:58.291Z,4.60
2022-12-27T21:51:32.539Z,4.60
2022-12-27T21:53:05.589Z,4.50
2022-12-27T21:54:38.674Z,4.50
2022-12-27T21:56:12.439Z,4.40
2022-12-27T21:57:45.690Z,4.30
2022-12-27T21:59:18.769Z,4.00
2022-12-27T22:00:57.641Z,3.80
2022-12-27T22:02:32.543Z,3.70
2022-12-27T22:04:06.123Z,3.50
2022-12-27T22:05:39.248Z,3.40
2022-12-27T22:07:12.304Z,3.30
2022-12-27T22:08:47.145Z,3.20
2022-12-27T22:10:20.234Z,3.10
2022-12-27T22:11:53.292Z,3.10
2022-12-27T22:13:26.372Z,3.50
2022-12-27T22:14:59.423Z,3.40
2022-12-27T22:16:34.287Z,3.40
2022-12-27T22:18:07.747Z,3.30
2022-12-27T22:19:40.799Z,3.10
2022-12-27T22:21:14.633Z,2.90
2022-12-27T22:22:47.756Z,2.70
2022-12-27T22:24:20.803Z,2.60
2022-12-27T22:25:52.947Z,2.40
2022-12-27T22:27:26.010Z,2.30